This demonstration page uses our WeatherBlox Daily Observations layout. Learn more.

41.55636, -103.73856

Hourly Observations for April 15, 2019

Temp ( °F °C ) Dew Point ( °F °C ) Humidity (%) Winds ( mph kmh ) Pressure ( in mb ) Visibility ( mi km ) Precip ( " mm )
12:58 am 00:58 Mostly Clear 53 11.5 30 -0.9 43 43 WNW 20 31 29.68 1005 10 16.0934 0 0
1:58 am 01:58 Partly Cloudy 50 10 32 -0.2 49 49 W 18 30 29.69 1005 10 16.0934 0 0
2:58 am 02:58 Mostly Cloudy 49 9.5 31 -0.4 50 50 W 15 24 29.7 1006 10 16.0934 0 0
3:58 am 03:58 Mostly Cloudy 48 9 32 0.2 54 54 W 13 20 29.7 1006 10 16.0934 0 0
4:58 am 04:58 Mostly Cloudy 47 8.1 32 0.2 58 58 W 15 24 29.67 1005 10 16.0934 0 0
5:58 am 05:58 Mostly Cloudy 46 7.9 33 0.7 61 61 W 18 30 29.66 1004 10 16.0934 0 0
6:58 am 06:58 Mostly Cloudy 47 8.1 33 0.5 59 59 WSW 15 24 29.67 1005 10 16.0934 0 0
8:58 am 08:58 Mostly Cloudy 48 9.1 33 0.8 56 56 W 12 19 29.62 1003 10 16.0934 0 0
9:58 am 09:58 Cloudy 46 8 33 0.4 59 59 SW 14 22 29.6 1002 10 16.0934 0 0
10:58 am 10:58 Clear 40 4.2 31 -0.4 72 72 SW 14 22 29.63 1004 10 16.0934 0 0
11:58 am 11:58 Mostly Cloudy 42 5.3 32 -0.1 68 68 SW 16 26 29.63 1004 10 16.0934 0 0
12:58 pm 12:58 Mostly Cloudy 44 6.6 31 -0.5 61 61 SW 15 24 29.66 1005 10 16.0934 0 0
1:58 pm 13:58 Mostly Sunny 48 9 32 0 54 54 WNW 9 15 29.7 1006 10 16.0934 0 0
2:58 pm 14:58 Sunny 52 11.3 36 2.4 55 55 W 14 22 29.71 1006 10 16.0934 0 0
3:58 pm 15:58 Partly Cloudy 54 12.1 37 2.8 53 53 WNW 9 15 29.71 1006 10 16.0934 0 0
4:58 pm 16:58 Mostly Sunny 56 13.6 37 2.5 47 47 WNW 6 9 29.71 1006 10 16.0934 0 0
5:58 pm 17:58 Mostly Cloudy 61 15.9 36 2.1 40 40 NNE 6 9 29.68 1005 10 16.0934 0 0
6:58 pm 18:58 Mostly Cloudy with Light Rain 58 14.4 40 4.4 51 51 NNW 14 22 29.7 1006 10 16.0934 0 0
7:58 pm 19:58 Mostly Cloudy with Light Showers 53 11.5 44 6.4 71 71 NW 8 13 29.72 1006 10 16.0934 0.02 0.508
8:58 pm 20:58 Partly Cloudy 55 12.8 43 6 64 64 NNW 16 26 29.7 1006 10 16.0934 0 0
9:58 pm 21:58 Partly Cloudy 55 12.5 44 6.4 67 67 N 10 17 29.7 1006 10 16.0934 0 0
10:58 pm 22:58 Mostly Cloudy 56 13.3 44 6.4 63 63 N 5 7 29.72 1006 10 16.0934 0 0
11:58 pm 23:58 Mostly Cloudy 55 13 39 3.9 54 54 NNE 12 19 29.72 1006 10 16.0934 0 0

Powered by AerisWeather